Ashwood, Texas
Current Conditions -  °F | °C
As of 4:53 PM on Monday 22 Dec 2014 (Local Time) from KLBX Reporting Station
Broken Clouds Broken Clouds  
Wind Chill: 65°   Ceiling: 1300
Heat Index: 65°   Visibility: 10mi
Dew Point: 61°   Wind: 13mph
Humidity: 87%   Direction: 210°SSW
Pressure: 29.65"   Gusts: 17mph
Location:  29.0235°N, 95.7113°W
Report Text: KLBX 222253Z AUTO 21011G15KT 10SM BKN013 18/16 A2965 RMK AO2 SLP041 T01830161
Loading
Personal Weather Stations






























Interactive Weather Map New forecast layout! Learn more

10-Day Weather Forecast

Advertisements
Track Severe Weather on mobile